createdAt,value
2022-10-13T00:01:27.437Z,9.57
2022-10-13T00:03:56.632Z,9.60
2022-10-13T00:06:26.272Z,9.56
2022-10-13T00:08:56.699Z,9.53
2022-10-13T00:11:28.318Z,9.41
2022-10-13T00:14:02.100Z,9.24
2022-10-13T00:16:31.799Z,9.29
2022-10-13T00:19:00.242Z,9.31
2022-10-13T00:21:28.720Z,9.36
2022-10-13T00:23:58.148Z,9.37
2022-10-13T00:26:26.699Z,9.38
2022-10-13T00:28:55.808Z,9.40
2022-10-13T00:31:27.157Z,9.41
2022-10-13T00:33:56.085Z,9.43
2022-10-13T00:36:25.523Z,9.44
2022-10-13T00:38:53.954Z,9.44
2022-10-13T00:41:22.563Z,9.43
2022-10-13T00:44:03.613Z,9.43
2022-10-13T00:46:34.272Z,9.43
2022-10-13T00:49:08.574Z,9.34
2022-10-13T00:51:45.150Z,9.34
2022-10-13T00:54:17.465Z,9.32
2022-10-13T00:56:46.154Z,9.31
2022-10-13T00:59:23.060Z,9.32
2022-10-13T01:01:55.712Z,9.32
2022-10-13T01:04:28.938Z,9.30
2022-10-13T01:06:58.178Z,9.31
2022-10-13T01:09:27.098Z,9.30
2022-10-13T01:12:26.456Z,9.29
2022-10-13T01:15:13.334Z,9.27
2022-10-13T01:17:56.390Z,9.24
2022-10-13T01:20:49.092Z,9.16
2022-10-13T01:23:38.579Z,9.12
2022-10-13T01:26:25.816Z,9.09
2022-10-13T01:29:17.059Z,9.05
2022-10-13T01:31:54.724Z,8.99
2022-10-13T01:34:29.319Z,8.98
2022-10-13T01:36:58.117Z,8.99
2022-10-13T01:39:38.727Z,9.02
2022-10-13T01:42:17.701Z,9.03
2022-10-13T01:44:50.815Z,9.00
2022-10-13T01:47:21.274Z,8.94
2022-10-13T01:49:53.506Z,8.89
2022-10-13T01:52:26.603Z,8.90
2022-10-13T01:54:55.265Z,8.86
2022-10-13T01:57:37.234Z,8.78
2022-10-13T02:00:26.299Z,8.74
2022-10-13T02:03:11.629Z,8.72
2022-10-13T02:05:49.510Z,8.71
2022-10-13T02:08:23.948Z,8.58
2022-10-13T02:11:02.040Z,8.55
2022-10-13T02:13:33.404Z,8.54
2022-10-13T02:16:02.865Z,8.53
2022-10-13T02:18:33.787Z,8.59
2022-10-13T02:21:03.195Z,8.59
2022-10-13T02:23:32.381Z,8.59
2022-10-13T02:26:00.534Z,8.56
2022-10-13T02:28:29.990Z,8.57
2022-10-13T02:30:58.834Z,8.54
2022-10-13T02:33:27.613Z,8.52
2022-10-13T02:35:55.765Z,8.45
2022-10-13T02:38:23.685Z,8.46
2022-10-13T02:40:52.067Z,8.48
2022-10-13T02:43:22.159Z,8.48
2022-10-13T02:45:51.065Z,8.48
2022-10-13T02:48:19.437Z,8.47
2022-10-13T02:50:48.115Z,8.44
2022-10-13T02:53:16.312Z,8.43
2022-10-13T02:55:44.932Z,8.44
2022-10-13T02:58:13.950Z,8.42
2022-10-13T03:00:43.376Z,8.42
2022-10-13T03:03:11.850Z,8.41
2022-10-13T03:05:40.597Z,8.40
2022-10-13T03:08:08.502Z,8.41
2022-10-13T03:10:37.778Z,8.39
2022-10-13T03:13:06.395Z,8.39
2022-10-13T03:15:35.304Z,8.36
2022-10-13T03:18:04.015Z,8.31
2022-10-13T03:20:32.821Z,8.29
2022-10-13T03:23:01.417Z,8.28
2022-10-13T03:25:29.363Z,8.28
2022-10-13T03:27:58.528Z,8.27
2022-10-13T03:30:26.930Z,8.28
2022-10-13T03:33:05.309Z,8.27
2022-10-13T03:35:33.998Z,8.30
2022-10-13T03:38:01.590Z,8.32
2022-10-13T03:40:30.866Z,8.35
2022-10-13T03:42:58.781Z,8.36
2022-10-13T03:45:26.852Z,8.41
2022-10-13T03:47:55.140Z,8.38
2022-10-13T03:50:23.128Z,8.39
2022-10-13T03:52:50.770Z,8.39
2022-10-13T03:55:18.944Z,8.37
2022-10-13T03:57:47.122Z,8.34
2022-10-13T04:00:17.002Z,8.34
2022-10-13T04:02:44.865Z,8.23
2022-10-13T04:05:13.447Z,8.18
2022-10-13T04:07:41.147Z,8.15
2022-10-13T04:10:16.018Z,8.12
2022-10-13T04:12:44.842Z,8.09
2022-10-13T04:15:12.792Z,8.11
2022-10-13T04:17:42.041Z,7.99
2022-10-13T04:20:10.860Z,7.97
2022-10-13T04:22:39.378Z,7.90
2022-10-13T04:25:08.649Z,7.87
2022-10-13T04:27:39.243Z,7.90
2022-10-13T04:30:09.476Z,7.88
2022-10-13T04:32:40.320Z,7.81
2022-10-13T04:35:10.688Z,7.78
2022-10-13T04:37:42.775Z,7.72
2022-10-13T04:40:13.945Z,7.73
2022-10-13T04:42:42.522Z,7.79
2022-10-13T04:45:10.654Z,7.87
2022-10-13T04:47:40.936Z,7.88
2022-10-13T04:50:09.795Z,7.90
2022-10-13T04:52:37.993Z,7.89
2022-10-13T04:55:07.499Z,7.85
2022-10-13T04:57:36.351Z,7.85
2022-10-13T05:00:09.149Z,7.85
2022-10-13T05:02:38.413Z,7.87
2022-10-13T05:05:07.733Z,8.34
2022-10-13T05:07:36.744Z,8.72
2022-10-13T05:10:05.875Z,8.88
2022-10-13T05:12:33.703Z,8.91
2022-10-13T05:15:02.005Z,8.83
2022-10-13T05:17:35.285Z,8.80
2022-10-13T05:20:07.237Z,8.41
2022-10-13T05:22:35.283Z,8.62
2022-10-13T05:25:03.308Z,8.49
2022-10-13T05:27:31.950Z,8.25
2022-10-13T05:30:01.412Z,8.17
2022-10-13T05:32:39.384Z,8.11
2022-10-13T05:35:11.044Z,8.05
2022-10-13T05:37:41.579Z,8.11
2022-10-13T05:43:09.143Z,8.07
2022-10-13T05:45:39.618Z,8.19
2022-10-13T05:48:14.298Z,8.13
2022-10-13T05:50:44.642Z,8.16
2022-10-13T05:53:15.169Z,8.23
2022-10-13T05:55:44.607Z,8.23
2022-10-13T05:58:14.900Z,8.27
2022-10-13T06:00:44.449Z,8.32
2022-10-13T06:03:16.279Z,8.35
2022-10-13T06:05:47.639Z,8.40
2022-10-13T06:08:20.633Z,8.41
2022-10-13T06:10:53.368Z,8.45
2022-10-13T06:13:25.018Z,8.50
2022-10-13T06:16:14.778Z,8.59
2022-10-13T06:18:45.119Z,8.64
2022-10-13T06:21:14.209Z,8.72
2022-10-13T06:23:43.597Z,8.86
2022-10-13T06:26:12.372Z,8.92
2022-10-13T06:28:40.365Z,9.02
2022-10-13T06:31:08.846Z,9.05
2022-10-13T06:33:38.497Z,9.16
2022-10-13T06:36:07.613Z,9.25
2022-10-13T06:38:36.012Z,9.34
2022-10-13T06:41:04.827Z,9.45
2022-10-13T06:43:40.372Z,9.52
2022-10-13T06:46:11.935Z,9.61
2022-10-13T06:48:41.026Z,9.73
2022-10-13T06:51:12.248Z,9.78
2022-10-13T06:53:40.286Z,9.91
2022-10-13T06:56:08.773Z,10.03
2022-10-13T06:58:39.982Z,10.08
2022-10-13T07:01:40.554Z,10.16
2022-10-13T07:04:35.336Z,10.23
2022-10-13T07:07:03.879Z,10.36
2022-10-13T07:09:32.401Z,10.53
2022-10-13T07:12:02.400Z,10.68
2022-10-13T07:14:31.201Z,10.73
2022-10-13T07:17:03.498Z,10.86
2022-10-13T07:19:32.125Z,10.90
2022-10-13T07:22:02.140Z,11.00
2022-10-13T07:24:31.197Z,11.05
2022-10-13T07:27:06.762Z,11.14
2022-10-13T07:29:37.855Z,11.25
2022-10-13T07:32:09.301Z,11.34
2022-10-13T07:34:58.136Z,11.46
2022-10-13T07:38:14.499Z,11.57
2022-10-13T07:41:25.061Z,11.80
2022-10-13T07:44:08.623Z,11.84
2022-10-13T07:46:45.821Z,12.04
2022-10-13T07:51:01.110Z,12.16
2022-10-13T07:53:16.846Z,12.54
2022-10-13T07:56:22.481Z,12.96
2022-10-13T07:58:50.323Z,12.99
2022-10-13T08:01:18.921Z,13.00
2022-10-13T08:03:50.338Z,13.60
2022-10-13T08:06:21.022Z,13.89
2022-10-13T08:09:01.912Z,13.97
2022-10-13T08:11:32.769Z,14.41
2022-10-13T08:14:08.612Z,14.38
2022-10-13T08:16:51.450Z,14.49
2022-10-13T08:19:28.816Z,14.56
2022-10-13T08:22:00.102Z,14.61
2022-10-13T08:24:35.339Z,14.80
2022-10-13T08:27:05.462Z,15.03
2022-10-13T08:29:38.232Z,15.17
2022-10-13T08:32:11.887Z,15.51
2022-10-13T08:34:45.957Z,15.76
2022-10-13T08:37:18.055Z,15.85
2022-10-13T08:39:48.018Z,16.16
2022-10-13T08:42:23.469Z,16.25
2022-10-13T08:52:17.499Z,16.24
2022-10-13T08:54:48.234Z,16.41
2022-10-13T08:57:19.001Z,16.52
2022-10-13T08:59:52.370Z,16.61
2022-10-13T09:02:35.582Z,16.75
2022-10-13T09:05:11.563Z,16.77
2022-10-13T09:07:44.267Z,16.88
2022-10-13T09:10:16.472Z,16.97
2022-10-13T09:12:45.458Z,17.06
2022-10-13T09:15:14.560Z,17.28
2022-10-13T09:17:44.627Z,17.35
2022-10-13T09:20:22.687Z,17.39
2022-10-13T09:23:08.612Z,17.48
2022-10-13T09:25:42.310Z,17.53
2022-10-13T09:28:17.252Z,17.69
2022-10-13T09:34:40.266Z,18.03
2022-10-13T09:37:23.515Z,18.19
2022-10-13T09:40:21.806Z,18.23
2022-10-13T09:42:51.971Z,18.33
2022-10-13T09:45:23.259Z,18.46
2022-10-13T09:47:58.301Z,18.56
2022-10-13T09:50:28.203Z,18.58
2022-10-13T09:53:14.772Z,18.63
2022-10-13T09:55:48.574Z,18.76
2022-10-13T09:58:26.516Z,18.84
2022-10-13T10:04:13.293Z,19.11
2022-10-13T10:06:46.819Z,19.16
2022-10-13T10:09:16.313Z,19.26
2022-10-13T10:12:12.310Z,19.30
2022-10-13T10:15:02.992Z,19.45
2022-10-13T10:25:29.592Z,19.76
2022-10-13T10:28:37.743Z,19.83
2022-10-13T10:31:52.441Z,19.88
2022-10-13T10:34:54.552Z,19.99
2022-10-13T10:37:51.673Z,20.06
2022-10-13T10:40:29.432Z,20.21
2022-10-13T10:43:55.931Z,20.15
2022-10-13T10:46:34.922Z,20.25
2022-10-13T10:49:50.269Z,20.42
2022-10-13T10:52:57.922Z,20.50
2022-10-13T10:56:56.198Z,20.60
2022-10-13T11:00:12.476Z,20.63
2022-10-13T11:03:06.624Z,20.74
2022-10-13T11:09:12.365Z,20.87
2022-10-13T11:11:44.008Z,20.84
2022-10-13T11:14:24.210Z,20.87
2022-10-13T11:17:15.408Z,20.87
2022-10-13T11:20:01.831Z,20.91
2022-10-13T11:22:31.738Z,20.93
2022-10-13T11:25:04.229Z,20.87
2022-10-13T11:27:36.666Z,21.02
2022-10-13T11:30:44.067Z,21.03
2022-10-13T11:33:33.960Z,21.06
2022-10-13T11:36:41.487Z,21.13
2022-10-13T11:42:25.056Z,21.13
2022-10-13T11:48:41.830Z,21.30
2022-10-13T11:51:43.095Z,21.39
2022-10-13T11:54:38.830Z,21.34
2022-10-13T11:57:24.765Z,21.37
2022-10-13T11:59:58.037Z,21.16
2022-10-13T12:02:31.899Z,21.06
2022-10-13T12:05:24.643Z,21.14
2022-10-13T12:07:55.699Z,21.16
2022-10-13T12:10:40.339Z,21.18
2022-10-13T12:13:25.153Z,21.29
2022-10-13T12:16:09.382Z,21.37
2022-10-13T12:19:10.793Z,21.38
2022-10-13T12:21:54.651Z,21.47
2022-10-13T12:24:27.919Z,21.23
2022-10-13T12:27:13.154Z,21.31
2022-10-13T12:29:45.728Z,21.27
2022-10-13T12:32:29.874Z,21.33
2022-10-13T12:35:16.826Z,21.21
2022-10-13T12:37:47.653Z,20.95
2022-10-13T12:40:18.257Z,20.90
2022-10-13T12:42:51.059Z,20.57
2022-10-13T12:45:25.388Z,20.70
2022-10-13T12:47:54.858Z,20.81
2022-10-13T12:50:32.271Z,20.84
2022-10-13T12:53:19.542Z,20.90
2022-10-13T12:56:00.636Z,20.91
2022-10-13T12:58:36.816Z,20.93
2022-10-13T13:01:16.167Z,20.66
2022-10-13T13:03:54.963Z,20.73
2022-10-13T13:06:31.678Z,20.72
2022-10-13T13:09:30.466Z,20.71
2022-10-13T13:12:07.810Z,20.70
2022-10-13T13:14:39.964Z,20.74
2022-10-13T13:17:45.347Z,20.76
2022-10-13T13:20:38.812Z,20.89
2022-10-13T13:23:09.149Z,21.08
2022-10-13T13:25:44.389Z,21.21
2022-10-13T13:28:15.279Z,21.30
2022-10-13T13:30:45.207Z,21.20
2022-10-13T13:33:13.482Z,21.12
2022-10-13T13:35:42.749Z,20.98
2022-10-13T13:38:11.601Z,20.96
2022-10-13T13:40:39.298Z,20.87
2022-10-13T13:43:08.508Z,20.92
2022-10-13T13:45:37.779Z,20.93
2022-10-13T13:48:11.078Z,20.92
2022-10-13T13:50:40.106Z,20.84
2022-10-13T13:53:10.975Z,20.86
2022-10-13T13:55:40.159Z,20.84
2022-10-13T13:58:11.389Z,20.80
2022-10-13T14:00:39.397Z,20.82
2022-10-13T14:03:09.961Z,20.79
2022-10-13T14:05:41.671Z,20.76
2022-10-13T14:08:11.643Z,20.74
2022-10-13T14:10:40.820Z,20.71
2022-10-13T14:13:08.558Z,20.67
2022-10-13T14:15:36.959Z,20.67
2022-10-13T14:18:04.778Z,20.62
2022-10-13T14:20:33.473Z,20.57
2022-10-13T14:23:01.703Z,20.50
2022-10-13T14:25:29.285Z,20.42
2022-10-13T14:27:58.474Z,20.35
2022-10-13T14:30:29.217Z,20.25
2022-10-13T14:32:57.427Z,20.13
2022-10-13T14:35:26.533Z,20.04
2022-10-13T14:37:54.581Z,19.97
2022-10-13T14:40:23.702Z,19.88
2022-10-13T14:42:51.311Z,19.85
2022-10-13T14:45:19.268Z,19.81
2022-10-13T14:47:47.657Z,19.77
2022-10-13T14:50:16.969Z,19.71
2022-10-13T14:52:46.354Z,19.67
2022-10-13T14:55:14.027Z,19.62
2022-10-13T14:57:44.796Z,19.52
2022-10-13T15:00:14.549Z,19.49
2022-10-13T15:02:42.669Z,19.44
2022-10-13T15:05:10.481Z,19.37
2022-10-13T15:07:41.130Z,19.31
2022-10-13T15:10:09.872Z,19.24
2022-10-13T15:12:37.525Z,19.18
2022-10-13T15:15:06.012Z,19.11
2022-10-13T15:17:33.959Z,19.06
2022-10-13T15:20:01.566Z,18.99
2022-10-13T15:22:31.336Z,18.89
2022-10-13T15:24:58.889Z,18.83
2022-10-13T15:27:26.889Z,18.74
2022-10-13T15:29:55.006Z,18.58
2022-10-13T15:32:22.906Z,18.34
2022-10-13T15:34:52.118Z,18.07
2022-10-13T15:37:20.133Z,17.87
2022-10-13T15:39:50.984Z,17.72
2022-10-13T15:42:21.312Z,17.60
2022-10-13T15:47:38.260Z,17.38
2022-10-13T15:50:07.072Z,17.36
2022-10-13T15:52:40.469Z,17.27
2022-10-13T15:55:10.431Z,17.15
2022-10-13T15:57:38.826Z,17.03
2022-10-13T16:00:08.627Z,16.97
2022-10-13T16:02:41.826Z,16.97
2022-10-13T16:05:13.711Z,16.98
2022-10-13T16:07:42.234Z,16.95
2022-10-13T16:10:12.740Z,16.94
2022-10-13T16:12:44.410Z,16.85
2022-10-13T16:15:21.009Z,16.72
2022-10-13T16:17:51.878Z,16.69
2022-10-13T16:20:26.959Z,16.62
2022-10-13T16:22:55.026Z,16.48
2022-10-13T16:25:23.466Z,16.31
2022-10-13T16:27:52.003Z,16.23
2022-10-13T16:30:20.075Z,16.06
2022-10-13T16:32:48.525Z,15.99
2022-10-13T16:35:16.783Z,15.89
2022-10-13T16:37:44.445Z,15.79
2022-10-13T16:40:12.940Z,15.64
2022-10-13T16:42:41.849Z,15.59
2022-10-13T16:45:09.858Z,15.49
2022-10-13T16:47:38.247Z,15.40
2022-10-13T16:50:09.718Z,15.32
2022-10-13T16:52:38.538Z,15.31
2022-10-13T16:55:06.747Z,15.31
2022-10-13T16:57:34.573Z,15.21
2022-10-13T17:00:02.587Z,15.16
2022-10-13T17:02:30.357Z,15.04
2022-10-13T17:04:57.950Z,14.88
2022-10-13T17:07:26.455Z,14.80
2022-10-13T17:09:54.768Z,14.77
2022-10-13T17:12:22.439Z,14.72
2022-10-13T17:14:50.306Z,14.65
2022-10-13T17:17:18.136Z,14.62
2022-10-13T17:19:46.245Z,14.58
2022-10-13T17:22:14.180Z,14.57
2022-10-13T17:24:48.014Z,14.61
2022-10-13T17:27:16.612Z,14.60
2022-10-13T17:29:45.726Z,14.50
2022-10-13T17:32:13.439Z,14.45
2022-10-13T17:34:41.362Z,14.44
2022-10-13T17:37:09.878Z,14.50
2022-10-13T17:39:39.439Z,14.50
2022-10-13T17:42:08.062Z,14.47
2022-10-13T17:44:35.617Z,14.44
2022-10-13T17:47:03.219Z,14.38
2022-10-13T17:49:31.189Z,14.27
2022-10-13T17:51:59.887Z,14.13
2022-10-13T17:54:27.620Z,14.11
2022-10-13T17:56:59.137Z,14.14
2022-10-13T17:59:27.677Z,14.13
2022-10-13T18:01:56.075Z,14.09
2022-10-13T18:04:24.091Z,14.07
2022-10-13T18:06:52.165Z,14.03
2022-10-13T18:09:21.304Z,14.02
2022-10-13T18:11:51.148Z,14.01
2022-10-13T18:14:24.377Z,14.01
2022-10-13T18:16:53.179Z,13.93
2022-10-13T18:19:22.189Z,13.81
2022-10-13T18:21:52.925Z,13.75
2022-10-13T18:24:21.597Z,13.70
2022-10-13T18:26:49.237Z,13.67
2022-10-13T18:29:17.479Z,13.60
2022-10-13T18:31:45.424Z,13.53
2022-10-13T18:34:16.029Z,13.55
2022-10-13T18:36:48.152Z,13.56
2022-10-13T18:39:19.733Z,13.59
2022-10-13T18:41:49.683Z,13.58
2022-10-13T18:44:18.220Z,13.44
2022-10-13T18:46:50.419Z,13.28
2022-10-13T18:49:20.647Z,13.27
2022-10-13T18:51:50.667Z,13.30
2022-10-13T18:54:18.978Z,13.29
2022-10-13T18:56:46.733Z,13.33
2022-10-13T18:59:15.121Z,13.16
2022-10-13T19:01:44.415Z,13.07
2022-10-13T19:04:14.762Z,13.08
2022-10-13T19:06:43.139Z,13.11
2022-10-13T19:09:13.395Z,13.13
2022-10-13T19:11:41.840Z,13.16
2022-10-13T19:14:12.543Z,13.14
2022-10-13T19:16:43.641Z,13.10
2022-10-13T19:19:12.632Z,13.11
2022-10-13T19:21:41.221Z,13.08
2022-10-13T19:24:22.604Z,13.03
2022-10-13T19:26:50.944Z,13.05
2022-10-13T19:29:18.999Z,13.06
2022-10-13T19:31:46.661Z,13.04
2022-10-13T19:34:15.613Z,13.05
2022-10-13T19:36:46.341Z,13.02
2022-10-13T19:39:20.762Z,13.02
2022-10-13T19:41:49.472Z,13.02
2022-10-13T19:44:19.530Z,12.96
2022-10-13T19:46:55.146Z,12.99
2022-10-13T19:49:26.684Z,13.02
2022-10-13T19:51:54.902Z,13.03
2022-10-13T19:54:23.050Z,13.03
2022-10-13T19:56:51.805Z,13.04
2022-10-13T19:59:19.986Z,13.05
2022-10-13T20:01:48.247Z,13.07
2022-10-13T20:04:19.331Z,13.08
2022-10-13T20:06:48.719Z,13.05
2022-10-13T20:09:17.410Z,13.08
2022-10-13T20:11:46.930Z,13.13
2022-10-13T20:14:15.551Z,13.17
2022-10-13T20:16:43.499Z,13.14
2022-10-13T20:19:16.601Z,13.09
2022-10-13T20:21:48.033Z,13.09
2022-10-13T20:24:15.981Z,13.11
2022-10-13T20:26:44.126Z,13.08
2022-10-13T20:29:12.786Z,13.06
2022-10-13T20:31:41.121Z,13.03
2022-10-13T20:34:10.587Z,12.98
2022-10-13T20:36:39.510Z,12.98
2022-10-13T20:39:09.037Z,12.96
2022-10-13T20:41:36.858Z,12.91
2022-10-13T20:44:04.942Z,12.88
2022-10-13T20:46:34.278Z,12.90
2022-10-13T20:49:12.610Z,12.92
2022-10-13T20:51:42.135Z,12.92
2022-10-13T20:54:11.629Z,12.87
2022-10-13T20:56:39.495Z,12.86
2022-10-13T20:59:12.203Z,12.88
2022-10-13T21:01:39.867Z,12.74
2022-10-13T21:04:08.100Z,12.63
2022-10-13T21:06:39.173Z,12.55
2022-10-13T21:09:07.174Z,12.45
2022-10-13T21:11:35.093Z,12.33
2022-10-13T21:14:07.046Z,12.35
2022-10-13T21:16:35.506Z,12.37
2022-10-13T21:19:07.221Z,12.37
2022-10-13T21:21:36.635Z,12.41
2022-10-13T21:24:06.598Z,12.45
2022-10-13T21:26:34.755Z,12.49
2022-10-13T21:29:05.056Z,12.48
2022-10-13T21:31:34.634Z,12.36
2022-10-13T21:34:02.511Z,12.10
2022-10-13T21:36:31.875Z,12.21
2022-10-13T21:39:02.288Z,12.25
2022-10-13T21:41:31.684Z,12.21
2022-10-13T21:43:59.733Z,12.27
2022-10-13T21:46:32.379Z,12.25
2022-10-13T21:49:03.917Z,12.23
2022-10-13T21:51:39.174Z,12.15
2022-10-13T21:54:11.922Z,12.12
2022-10-13T21:56:40.273Z,12.07
2022-10-13T21:59:08.412Z,12.06
2022-10-13T22:01:36.303Z,12.07
2022-10-13T22:04:12.720Z,12.07
2022-10-13T22:06:40.716Z,12.02
2022-10-13T22:09:09.138Z,11.94
2022-10-13T22:11:39.135Z,11.91
2022-10-13T22:14:12.333Z,11.86
2022-10-13T22:16:43.542Z,11.87
2022-10-13T22:19:11.740Z,11.84
2022-10-13T22:21:42.983Z,11.81
2022-10-13T22:24:17.213Z,11.74
2022-10-13T22:26:46.899Z,11.73
2022-10-13T22:29:19.854Z,11.55
2022-10-13T22:31:48.224Z,11.52
2022-10-13T22:34:19.681Z,11.46
2022-10-13T22:36:48.153Z,11.39
2022-10-13T22:39:16.179Z,11.43
2022-10-13T22:41:44.222Z,11.48
2022-10-13T22:44:12.139Z,11.50
2022-10-13T22:46:40.559Z,11.47
2022-10-13T22:49:13.622Z,11.43
2022-10-13T22:51:41.671Z,11.36
2022-10-13T22:54:10.144Z,11.26
2022-10-13T22:56:37.853Z,11.26
2022-10-13T22:59:08.150Z,11.28
2022-10-13T23:01:36.269Z,11.31
2022-10-13T23:04:04.921Z,11.32
2022-10-13T23:06:33.974Z,11.32
2022-10-13T23:09:04.926Z,11.32
2022-10-13T23:11:33.257Z,11.34
2022-10-13T23:14:01.529Z,11.33
2022-10-13T23:16:29.446Z,11.28
2022-10-13T23:18:57.718Z,11.25
2022-10-13T23:21:28.452Z,11.27
2022-10-13T23:24:01.532Z,11.29
2022-10-13T23:26:30.239Z,11.28
2022-10-13T23:28:58.556Z,11.24
2022-10-13T23:31:28.078Z,11.21
2022-10-13T23:33:56.494Z,11.15
2022-10-13T23:36:28.004Z,11.08
2022-10-13T23:39:06.353Z,11.03
2022-10-13T23:41:34.734Z,11.02
2022-10-13T23:44:02.617Z,10.95
2022-10-13T23:46:30.635Z,10.87
2022-10-13T23:48:58.210Z,10.77
2022-10-13T23:51:26.863Z,10.74
2022-10-13T23:53:55.287Z,10.69
2022-10-13T23:56:23.316Z,10.66
2022-10-13T23:58:53.182Z,10.59
